sensor_id;sensor_type;location;lat;lon;timestamp;pressure;altitude;pressure_sealevel;temperature;humidity
56270;BME280;42176;43.240;27.880;2022-09-17T00:00:39;99135.75;;;21.07;79.17
56270;BME280;42176;43.240;27.880;2022-09-17T00:03:05;99138.34;;;21.09;79.03
56270;BME280;42176;43.240;27.880;2022-09-17T00:05:31;99139.19;;;21.09;79.26
56270;BME280;42176;43.240;27.880;2022-09-17T00:07:56;99131.34;;;21.06;79.21
56270;BME280;42176;43.240;27.880;2022-09-17T00:10:22;99128.66;;;21.06;79.01
56270;BME280;42176;43.240;27.880;2022-09-17T00:12:48;99127.81;;;21.06;79.31
56270;BME280;42176;43.240;27.880;2022-09-17T00:15:14;99110.66;;;20.95;79.53
56270;BME280;42176;43.240;27.880;2022-09-17T00:17:40;99116.19;;;20.94;80.05
56270;BME280;42176;43.240;27.880;2022-09-17T00:20:07;99118.63;;;20.97;80.50
56270;BME280;42176;43.240;27.880;2022-09-17T00:22:37;99120.59;;;20.95;80.67
56270;BME280;42176;43.240;27.880;2022-09-17T00:25:04;99121.09;;;20.89;81.02
56270;BME280;42176;43.240;27.880;2022-09-17T00:27:30;99114.25;;;20.84;81.26
56270;BME280;42176;43.240;27.880;2022-09-17T00:29:55;99113.53;;;20.82;81.24
56270;BME280;42176;43.240;27.880;2022-09-17T00:32:21;99120.88;;;20.80;81.36
56270;BME280;42176;43.240;27.880;2022-09-17T00:34:48;99125.50;;;20.78;81.93
56270;BME280;42176;43.240;27.880;2022-09-17T00:37:17;99121.84;;;20.79;81.98
56270;BME280;42176;43.240;27.880;2022-09-17T00:39:42;99117.31;;;20.80;81.76
56270;BME280;42176;43.240;27.880;2022-09-17T00:42:10;99108.97;;;20.72;81.25
56270;BME280;42176;43.240;27.880;2022-09-17T00:44:53;99113.47;;;20.71;82.42
56270;BME280;42176;43.240;27.880;2022-09-17T00:47:31;99115.00;;;20.75;82.74
56270;BME280;42176;43.240;27.880;2022-09-17T00:50:05;99118.41;;;20.77;82.07
56270;BME280;42176;43.240;27.880;2022-09-17T00:52:36;99114.75;;;20.78;81.85
56270;BME280;42176;43.240;27.880;2022-09-17T00:55:14;99113.03;;;20.77;81.62
56270;BME280;42176;43.240;27.880;2022-09-17T00:57:40;99105.94;;;20.76;82.24
56270;BME280;42176;43.240;27.880;2022-09-17T01:00:07;99115.84;;;20.76;82.39
56270;BME280;42176;43.240;27.880;2022-09-17T01:02:33;99115.84;;;20.76;82.54
56270;BME280;42176;43.240;27.880;2022-09-17T01:05:00;99118.41;;;20.77;82.55
56270;BME280;42176;43.240;27.880;2022-09-17T01:32:15;99114.19;;;21.07;81.56
56270;BME280;42176;43.240;27.880;2022-09-17T01:35:02;99108.44;;;21.12;81.31
56270;BME280;42176;43.240;27.880;2022-09-17T01:37:33;99111.75;;;21.16;81.03
56270;BME280;42176;43.240;27.880;2022-09-17T01:40:16;99105.81;;;21.22;80.67
56270;BME280;42176;43.240;27.880;2022-09-17T01:43:18;99099.22;;;21.26;80.77
56270;BME280;42176;43.240;27.880;2022-09-17T01:45:51;99092.97;;;21.25;81.08
56270;BME280;42176;43.240;27.880;2022-09-17T01:48:24;99085.72;;;21.26;80.72
56270;BME280;42176;43.240;27.880;2022-09-17T01:51:03;99099.16;;;21.37;80.60
56270;BME280;42176;43.240;27.880;2022-09-17T01:53:35;99097.19;;;21.39;79.95
56270;BME280;42176;43.240;27.880;2022-09-17T01:56:03;99093.53;;;21.40;80.08
56270;BME280;42176;43.240;27.880;2022-09-17T01:58:33;99088.13;;;21.40;80.20
56270;BME280;42176;43.240;27.880;2022-09-17T02:01:05;99080.44;;;21.36;80.78
56270;BME280;42176;43.240;27.880;2022-09-17T02:04:02;99085.03;;;21.45;80.35
56270;BME280;42176;43.240;27.880;2022-09-17T02:06:32;99082.34;;;21.45;79.92
56270;BME280;42176;43.240;27.880;2022-09-17T02:09:04;99087.63;;;21.47;79.50
56270;BME280;42176;43.240;27.880;2022-09-17T02:11:34;99093.94;;;21.57;79.68
56270;BME280;42176;43.240;27.880;2022-09-17T02:14:12;99098.56;;;21.66;80.64
56270;BME280;42176;43.240;27.880;2022-09-17T02:16:45;99099.28;;;21.68;79.19
56270;BME280;42176;43.240;27.880;2022-09-17T02:19:23;99105.16;;;21.73;78.27
56270;BME280;42176;43.240;27.880;2022-09-17T02:24:56;99087.00;;;21.75;78.21
56270;BME280;42176;43.240;27.880;2022-09-17T02:30:12;99070.03;;;21.64;78.77
56270;BME280;42176;43.240;27.880;2022-09-17T02:32:39;99070.91;;;21.64;78.35
56270;BME280;42176;43.240;27.880;2022-09-17T02:35:05;99074.31;;;21.66;78.78
56270;BME280;42176;43.240;27.880;2022-09-17T02:37:30;99061.72;;;21.55;78.20
56270;BME280;42176;43.240;27.880;2022-09-17T02:39:56;99061.84;;;21.54;77.70
56270;BME280;42176;43.240;27.880;2022-09-17T02:42:30;99071.00;;;21.63;77.52
56270;BME280;42176;43.240;27.880;2022-09-17T02:58:38;99067.22;;;21.54;77.40
56270;BME280;42176;43.240;27.880;2022-09-17T03:01:11;99055.00;;;21.50;77.76
56270;BME280;42176;43.240;27.880;2022-09-17T03:03:42;99062.63;;;21.44;77.48
56270;BME280;42176;43.240;27.880;2022-09-17T03:06:10;99068.03;;;21.44;77.27
56270;BME280;42176;43.240;27.880;2022-09-17T03:08:40;99059.94;;;21.44;76.78
56270;BME280;42176;43.240;27.880;2022-09-17T03:11:07;99050.00;;;21.45;76.95
56270;BME280;42176;43.240;27.880;2022-09-17T03:13:34;99041.06;;;21.44;76.68
56270;BME280;42176;43.240;27.880;2022-09-17T03:16:04;99043.88;;;21.43;77.09
56270;BME280;42176;43.240;27.880;2022-09-17T03:18:30;99038.75;;;21.40;76.58
56270;BME280;42176;43.240;27.880;2022-09-17T03:20:56;99041.56;;;21.38;76.55
56270;BME280;42176;43.240;27.880;2022-09-17T03:23:21;99039.84;;;21.37;76.22
56270;BME280;42176;43.240;27.880;2022-09-17T03:25:47;99036.72;;;21.32;76.43
56270;BME280;42176;43.240;27.880;2022-09-17T03:28:14;99045.66;;;21.33;76.91
56270;BME280;42176;43.240;27.880;2022-09-17T03:30:41;99038.06;;;21.26;76.80
56270;BME280;42176;43.240;27.880;2022-09-17T03:33:06;99038.59;;;21.20;77.72
56270;BME280;42176;43.240;27.880;2022-09-17T03:35:32;99035.44;;;21.15;80.10
56270;BME280;42176;43.240;27.880;2022-09-17T03:37:57;99056.38;;;21.11;81.45
56270;BME280;42176;43.240;27.880;2022-09-17T03:40:23;99054.19;;;21.05;82.12
56270;BME280;42176;43.240;27.880;2022-09-17T03:42:48;99054.84;;;20.97;83.03
56270;BME280;42176;43.240;27.880;2022-09-17T03:45:14;99054.47;;;20.91;84.53
56270;BME280;42176;43.240;27.880;2022-09-17T03:47:39;99055.00;;;20.84;84.87
56270;BME280;42176;43.240;27.880;2022-09-17T03:50:05;99045.91;;;20.74;84.50
56270;BME280;42176;43.240;27.880;2022-09-17T03:52:30;99045.72;;;20.66;83.72
56270;BME280;42176;43.240;27.880;2022-09-17T03:54:56;99041.69;;;20.60;81.92
56270;BME280;42176;43.240;27.880;2022-09-17T03:57:21;99048.16;;;20.58;81.40
56270;BME280;42176;43.240;27.880;2022-09-17T03:59:48;99042.03;;;20.56;80.00
56270;BME280;42176;43.240;27.880;2022-09-17T04:02:13;99045.00;;;20.52;79.71
56270;BME280;42176;43.240;27.880;2022-09-17T04:04:39;99052.78;;;20.56;79.59
56270;BME280;42176;43.240;27.880;2022-09-17T04:07:04;99032.72;;;20.60;79.35
56270;BME280;42176;43.240;27.880;2022-09-17T04:09:30;99031.38;;;20.65;78.56
56270;BME280;42176;43.240;27.880;2022-09-17T04:11:55;99034.19;;;20.75;77.62
56270;BME280;42176;43.240;27.880;2022-09-17T04:14:21;99033.47;;;20.84;77.00
56270;BME280;42176;43.240;27.880;2022-09-17T04:16:46;99034.84;;;21.11;75.87
56270;BME280;42176;43.240;27.880;2022-09-17T04:19:12;99030.03;;;21.48;74.60
56270;BME280;42176;43.240;27.880;2022-09-17T04:21:37;99030.56;;;21.84;72.45
56270;BME280;42176;43.240;27.880;2022-09-17T04:24:03;99018.53;;;22.19;70.71
56270;BME280;42176;43.240;27.880;2022-09-17T04:26:28;99014.41;;;22.25;69.35
56270;BME280;42176;43.240;27.880;2022-09-17T04:28:54;99018.84;;;22.66;67.67
56270;BME280;42176;43.240;27.880;2022-09-17T04:31:19;99025.88;;;23.18;66.22
56270;BME280;42176;43.240;27.880;2022-09-17T04:33:46;99031.81;;;23.71;63.88
56270;BME280;42176;43.240;27.880;2022-09-17T04:36:12;99026.84;;;24.24;61.12
56270;BME280;42176;43.240;27.880;2022-09-17T04:38:37;99020.75;;;24.77;58.98
56270;BME280;42176;43.240;27.880;2022-09-17T04:41:06;99026.03;;;25.33;56.94
56270;BME280;42176;43.240;27.880;2022-09-17T04:43:31;99024.25;;;25.87;54.67
56270;BME280;42176;43.240;27.880;2022-09-17T04:45:56;99022.97;;;26.25;52.83
56270;BME280;42176;43.240;27.880;2022-09-17T04:48:22;99016.63;;;26.51;52.06
56270;BME280;42176;43.240;27.880;2022-09-17T04:50:47;99019.88;;;27.06;50.35
56270;BME280;42176;43.240;27.880;2022-09-17T04:53:13;99012.56;;;27.64;48.99
56270;BME280;42176;43.240;27.880;2022-09-17T04:55:38;99010.31;;;28.18;49.48
56270;BME280;42176;43.240;27.880;2022-09-17T04:58:04;99009.53;;;28.72;48.38
56270;BME280;42176;43.240;27.880;2022-09-17T05:00:29;98995.19;;;29.10;46.63
56270;BME280;42176;43.240;27.880;2022-09-17T05:02:55;98999.34;;;29.44;45.25
56270;BME280;42176;43.240;27.880;2022-09-17T05:05:21;98996.91;;;29.87;43.81
56270;BME280;42176;43.240;27.880;2022-09-17T05:07:47;98984.97;;;30.03;43.09
56270;BME280;42176;43.240;27.880;2022-09-17T05:10:15;98976.56;;;30.35;42.01
56270;BME280;42176;43.240;27.880;2022-09-17T05:12:46;98970.69;;;30.90;41.36
56270;BME280;42176;43.240;27.880;2022-09-17T05:15:12;98970.56;;;31.41;40.43
56270;BME280;42176;43.240;27.880;2022-09-17T05:17:38;98968.00;;;31.90;39.08
56270;BME280;42176;43.240;27.880;2022-09-17T05:20:03;98966.78;;;32.34;38.88
56270;BME280;42176;43.240;27.880;2022-09-17T05:22:29;98966.28;;;32.79;37.98
56270;BME280;42176;43.240;27.880;2022-09-17T05:24:54;98963.66;;;33.27;37.38
56270;BME280;42176;43.240;27.880;2022-09-17T05:27:20;98973.56;;;33.81;37.22
56270;BME280;42176;43.240;27.880;2022-09-17T05:29:45;98971.72;;;34.41;36.31
56270;BME280;42176;43.240;27.880;2022-09-17T05:32:10;98982.06;;;34.91;34.92
56270;BME280;42176;43.240;27.880;2022-09-17T05:34:36;98975.06;;;35.27;34.36
56270;BME280;42176;43.240;27.880;2022-09-17T05:37:01;98978.59;;;35.85;33.86
56270;BME280;42176;43.240;27.880;2022-09-17T05:39:27;98980.03;;;36.50;32.38
56270;BME280;42176;43.240;27.880;2022-09-17T05:41:53;98977.03;;;37.01;31.45
56270;BME280;42176;43.240;27.880;2022-09-17T05:44:20;98973.22;;;37.92;29.32
56270;BME280;42176;43.240;27.880;2022-09-17T05:46:46;98973.78;;;37.46;30.62
56270;BME280;42176;43.240;27.880;2022-09-17T05:49:12;98976.31;;;37.06;30.41
56270;BME280;42176;43.240;27.880;2022-09-17T05:51:42;98971.75;;;37.42;29.92
56270;BME280;42176;43.240;27.880;2022-09-17T05:54:08;98976.13;;;38.50;28.72
56270;BME280;42176;43.240;27.880;2022-09-17T05:56:34;98971.97;;;38.93;28.58
56270;BME280;42176;43.240;27.880;2022-09-17T05:58:59;98966.59;;;38.05;28.99
56270;BME280;42176;43.240;27.880;2022-09-17T06:01:25;98964.19;;;37.97;29.55
56270;BME280;42176;43.240;27.880;2022-09-17T06:03:50;98958.53;;;38.56;26.92
56270;BME280;42176;43.240;27.880;2022-09-17T06:06:16;98970.03;;;39.40;26.40
56270;BME280;42176;43.240;27.880;2022-09-17T06:08:41;98968.88;;;40.09;26.63
56270;BME280;42176;43.240;27.880;2022-09-17T06:11:07;98978.19;;;40.42;25.57
56270;BME280;42176;43.240;27.880;2022-09-17T06:13:34;98981.09;;;41.02;25.42
56270;BME280;42176;43.240;27.880;2022-09-17T06:16:00;98978.72;;;41.49;23.95
56270;BME280;42176;43.240;27.880;2022-09-17T06:18:28;98976.34;;;42.06;22.18
56270;BME280;42176;43.240;27.880;2022-09-17T06:23:19;98980.06;;;41.79;22.72
56270;BME280;42176;43.240;27.880;2022-09-17T06:25:58;98980.94;;;42.33;22.23
56270;BME280;42176;43.240;27.880;2022-09-17T06:28:25;98965.84;;;42.18;21.30
56270;BME280;42176;43.240;27.880;2022-09-17T06:31:00;98972.94;;;42.41;20.71
56270;BME280;42176;43.240;27.880;2022-09-17T06:33:26;98965.56;;;42.94;20.30
56270;BME280;42176;43.240;27.880;2022-09-17T06:36:00;98969.22;;;43.61;19.64
56270;BME280;42176;43.240;27.880;2022-09-17T06:38:27;98962.78;;;43.66;19.47
56270;BME280;42176;43.240;27.880;2022-09-17T06:40:53;98966.00;;;44.25;19.11
56270;BME280;42176;43.240;27.880;2022-09-17T06:43:19;98966.19;;;44.49;19.05
56270;BME280;42176;43.240;27.880;2022-09-17T06:45:52;98978.16;;;44.55;19.31
56270;BME280;42176;43.240;27.880;2022-09-17T06:48:19;98964.91;;;44.16;19.23
56270;BME280;42176;43.240;27.880;2022-09-17T06:50:44;98967.34;;;44.38;18.87
56270;BME280;42176;43.240;27.880;2022-09-17T06:53:10;98960.56;;;44.54;18.43
56270;BME280;42176;43.240;27.880;2022-09-17T06:55:35;98960.31;;;44.96;18.56
56270;BME280;42176;43.240;27.880;2022-09-17T06:58:01;98963.09;;;45.01;18.64
56270;BME280;42176;43.240;27.880;2022-09-17T07:00:26;98957.81;;;44.99;18.56
56270;BME280;42176;43.240;27.880;2022-09-17T07:02:56;98967.97;;;44.80;19.15
56270;BME280;42176;43.240;27.880;2022-09-17T07:05:22;98973.31;;;43.95;19.38
56270;BME280;42176;43.240;27.880;2022-09-17T07:07:51;98963.94;;;43.24;19.97
56270;BME280;42176;43.240;27.880;2022-09-17T07:10:17;98965.59;;;42.30;21.04
56270;BME280;42176;43.240;27.880;2022-09-17T07:12:48;98961.44;;;41.42;21.83
56270;BME280;42176;43.240;27.880;2022-09-17T07:15:13;98958.72;;;40.87;22.83
56270;BME280;42176;43.240;27.880;2022-09-17T07:17:40;98969.25;;;40.85;22.94
56270;BME280;42176;43.240;27.880;2022-09-17T07:20:07;98961.06;;;39.33;24.16
56270;BME280;42176;43.240;27.880;2022-09-17T07:22:33;98963.28;;;38.20;25.50
56270;BME280;42176;43.240;27.880;2022-09-17T07:24:59;98956.81;;;38.14;25.87
56270;BME280;42176;43.240;27.880;2022-09-17T07:27:27;98970.56;;;38.50;25.43
56270;BME280;42176;43.240;27.880;2022-09-17T07:29:55;98980.69;;;38.32;25.92
56270;BME280;42176;43.240;27.880;2022-09-17T07:32:21;98970.81;;;38.60;25.85
56270;BME280;42176;43.240;27.880;2022-09-17T07:34:46;98976.16;;;39.42;24.76
56270;BME280;42176;43.240;27.880;2022-09-17T07:37:16;98980.84;;;39.93;24.31
56270;BME280;42176;43.240;27.880;2022-09-17T07:39:42;98981.66;;;39.37;24.32
56270;BME280;42176;43.240;27.880;2022-09-17T07:42:09;98977.16;;;39.53;24.27
56270;BME280;42176;43.240;27.880;2022-09-17T07:44:35;98958.41;;;38.51;25.19
56270;BME280;42176;43.240;27.880;2022-09-17T07:47:03;98966.34;;;38.59;25.34
56270;BME280;42176;43.240;27.880;2022-09-17T07:49:29;98973.88;;;38.76;25.03
56270;BME280;42176;43.240;27.880;2022-09-17T07:51:55;98969.50;;;38.51;24.77
56270;BME280;42176;43.240;27.880;2022-09-17T07:54:21;98948.50;;;38.26;25.94
56270;BME280;42176;43.240;27.880;2022-09-17T07:56:50;98956.19;;;38.24;24.43
56270;BME280;42176;43.240;27.880;2022-09-17T07:59:18;98963.47;;;38.54;24.31
56270;BME280;42176;43.240;27.880;2022-09-17T08:01:46;98963.78;;;38.69;24.62
56270;BME280;42176;43.240;27.880;2022-09-17T08:04:12;98951.56;;;38.01;25.56
56270;BME280;42176;43.240;27.880;2022-09-17T08:06:40;98948.72;;;38.94;24.39
56270;BME280;42176;43.240;27.880;2022-09-17T08:09:06;98947.44;;;39.82;23.73
56270;BME280;42176;43.240;27.880;2022-09-17T08:11:34;98943.28;;;40.46;22.86
56270;BME280;42176;43.240;27.880;2022-09-17T08:14:02;98941.38;;;40.74;22.18
56270;BME280;42176;43.240;27.880;2022-09-17T08:16:29;98951.31;;;40.98;22.59
56270;BME280;42176;43.240;27.880;2022-09-17T08:18:55;98955.03;;;40.31;23.33
56270;BME280;42176;43.240;27.880;2022-09-17T08:21:41;98947.22;;;39.72;23.92
56270;BME280;42176;43.240;27.880;2022-09-17T08:24:07;98940.47;;;38.13;25.53
56270;BME280;42176;43.240;27.880;2022-09-17T08:26:35;98918.38;;;38.99;24.98
56270;BME280;42176;43.240;27.880;2022-09-17T08:29:00;98928.97;;;37.92;26.28
56270;BME280;42176;43.240;27.880;2022-09-17T08:31:28;98916.91;;;37.27;26.95
56270;BME280;42176;43.240;27.880;2022-09-17T08:33:55;98914.69;;;37.47;26.85
56270;BME280;42176;43.240;27.880;2022-09-17T08:36:20;98920.41;;;36.80;27.85
56270;BME280;42176;43.240;27.880;2022-09-17T08:38:53;98919.19;;;35.71;29.43
56270;BME280;42176;43.240;27.880;2022-09-17T08:41:31;98921.31;;;35.69;28.71
56270;BME280;42176;43.240;27.880;2022-09-17T08:49:35;98907.16;;;33.98;31.76
56270;BME280;42176;43.240;27.880;2022-09-17T09:05:54;98872.75;;;31.57;37.25
56270;BME280;42176;43.240;27.880;2022-09-17T09:08:33;98876.69;;;31.48;38.25
56270;BME280;42176;43.240;27.880;2022-09-17T09:11:03;98866.38;;;30.71;39.58
56270;BME280;42176;43.240;27.880;2022-09-17T09:13:39;98871.63;;;30.14;40.83
56270;BME280;42176;43.240;27.880;2022-09-17T09:16:22;98859.88;;;29.69;41.79
56270;BME280;42176;43.240;27.880;2022-09-17T09:18:53;98863.28;;;29.71;41.79
56270;BME280;42176;43.240;27.880;2022-09-17T09:21:26;98833.81;;;29.51;42.37
56270;BME280;42176;43.240;27.880;2022-09-17T09:23:54;98858.31;;;29.21;43.12
56270;BME280;42176;43.240;27.880;2022-09-17T09:26:45;98855.84;;;29.11;44.55
56270;BME280;42176;43.240;27.880;2022-09-17T09:34:31;98843.53;;;28.54;47.17
56270;BME280;42176;43.240;27.880;2022-09-17T09:37:22;98852.44;;;28.48;46.71
56270;BME280;42176;43.240;27.880;2022-09-17T09:39:50;98855.28;;;28.31;47.70
56270;BME280;42176;43.240;27.880;2022-09-17T09:42:30;98848.84;;;28.24;49.03
56270;BME280;42176;43.240;27.880;2022-09-17T09:45:13;98860.16;;;28.04;50.30
56270;BME280;42176;43.240;27.880;2022-09-17T09:50:31;98844.75;;;28.28;50.64
56270;BME280;42176;43.240;27.880;2022-09-17T09:55:58;98840.44;;;27.62;51.90
56270;BME280;42176;43.240;27.880;2022-09-17T10:01:16;98855.38;;;27.66;54.04
56270;BME280;42176;43.240;27.880;2022-09-17T10:03:45;98855.66;;;27.88;52.79
56270;BME280;42176;43.240;27.880;2022-09-17T10:06:12;98856.34;;;27.82;53.49
56270;BME280;42176;43.240;27.880;2022-09-17T10:11:25;98851.56;;;27.92;52.98
56270;BME280;42176;43.240;27.880;2022-09-17T10:13:52;98840.91;;;27.74;54.66
56270;BME280;42176;43.240;27.880;2022-09-17T10:16:25;98842.59;;;27.75;54.29
56270;BME280;42176;43.240;27.880;2022-09-17T10:19:18;98841.22;;;27.79;55.29
56270;BME280;42176;43.240;27.880;2022-09-17T10:21:49;98812.91;;;27.57;55.29
56270;BME280;42176;43.240;27.880;2022-09-17T10:24:27;98815.00;;;27.87;55.47
56270;BME280;42176;43.240;27.880;2022-09-17T10:27:03;98821.75;;;27.91;55.50
56270;BME280;42176;43.240;27.880;2022-09-17T10:29:30;98817.03;;;27.85;55.01
56270;BME280;42176;43.240;27.880;2022-09-17T10:31:56;98810.59;;;27.77;54.85
56270;BME280;42176;43.240;27.880;2022-09-17T10:34:27;98816.41;;;27.74;54.60
56270;BME280;42176;43.240;27.880;2022-09-17T10:36:54;98809.69;;;27.54;56.03
56270;BME280;42176;43.240;27.880;2022-09-17T10:39:39;98801.84;;;27.59;57.13
56270;BME280;42176;43.240;27.880;2022-09-17T10:42:14;98757.94;;;27.62;56.84
56270;BME280;42176;43.240;27.880;2022-09-17T10:44:58;98775.63;;;27.66;57.07
56270;BME280;42176;43.240;27.880;2022-09-17T10:47:26;98769.22;;;27.50;58.35
56270;BME280;42176;43.240;27.880;2022-09-17T10:49:58;98763.78;;;27.42;59.66
56270;BME280;42176;43.240;27.880;2022-09-17T10:52:39;98780.94;;;27.59;58.49
56270;BME280;42176;43.240;27.880;2022-09-17T11:03:51;98779.22;;;28.45;56.30
56270;BME280;42176;43.240;27.880;2022-09-17T11:06:36;98794.06;;;29.04;54.85
56270;BME280;42176;43.240;27.880;2022-09-17T11:15:00;98784.84;;;29.05;54.35
56270;BME280;42176;43.240;27.880;2022-09-17T11:20:19;98785.22;;;29.31;53.15
56270;BME280;42176;43.240;27.880;2022-09-17T11:25:43;98769.38;;;28.82;52.22
56270;BME280;42176;43.240;27.880;2022-09-17T11:36:47;98736.75;;;28.89;54.03
56270;BME280;42176;43.240;27.880;2022-09-17T11:39:25;98734.78;;;28.97;52.51
56270;BME280;42176;43.240;27.880;2022-09-17T11:41:57;98716.44;;;28.76;53.04
56270;BME280;42176;43.240;27.880;2022-09-17T11:44:39;98702.44;;;29.24;50.14
56270;BME280;42176;43.240;27.880;2022-09-17T11:47:27;98724.03;;;29.71;47.04
56270;BME280;42176;43.240;27.880;2022-09-17T11:52:38;98726.59;;;30.37;46.01
56270;BME280;42176;43.240;27.880;2022-09-17T11:55:15;98721.41;;;30.43;47.64
56270;BME280;42176;43.240;27.880;2022-09-17T11:57:43;98718.38;;;30.88;45.36
56270;BME280;42176;43.240;27.880;2022-09-17T12:00:17;98723.63;;;30.82;44.23
56270;BME280;42176;43.240;27.880;2022-09-17T12:02:57;98721.19;;;30.22;45.03
56270;BME280;42176;43.240;27.880;2022-09-17T12:05:28;98703.25;;;30.35;45.65
56270;BME280;42176;43.240;27.880;2022-09-17T12:08:09;98693.13;;;30.86;44.64
56270;BME280;42176;43.240;27.880;2022-09-17T12:10:48;98685.50;;;31.58;42.51
56270;BME280;42176;43.240;27.880;2022-09-17T12:13:30;98681.41;;;31.96;41.36
56270;BME280;42176;43.240;27.880;2022-09-17T12:16:24;98674.25;;;32.42;39.60
56270;BME280;42176;43.240;27.880;2022-09-17T12:19:20;98682.88;;;32.72;39.41
56270;BME280;42176;43.240;27.880;2022-09-17T12:21:51;98672.13;;;32.64;39.18
56270;BME280;42176;43.240;27.880;2022-09-17T12:24:27;98673.38;;;32.75;39.40
56270;BME280;42176;43.240;27.880;2022-09-17T12:27:16;98665.34;;;32.80;39.42
56270;BME280;42176;43.240;27.880;2022-09-17T12:47:09;98622.81;;;32.37;42.72
56270;BME280;42176;43.240;27.880;2022-09-17T13:00:45;98615.91;;;31.39;46.15
56270;BME280;42176;43.240;27.880;2022-09-17T13:20:20;98664.94;;;31.76;46.39
56270;BME280;42176;43.240;27.880;2022-09-17T13:22:53;98660.31;;;31.96;43.65
56270;BME280;42176;43.240;27.880;2022-09-17T13:25:20;98650.63;;;31.87;38.21
56270;BME280;42176;43.240;27.880;2022-09-17T13:27:47;98654.38;;;31.72;38.93
56270;BME280;42176;43.240;27.880;2022-09-17T13:30:15;98651.44;;;31.19;39.65
56270;BME280;42176;43.240;27.880;2022-09-17T13:32:43;98645.97;;;30.83;40.14
56270;BME280;42176;43.240;27.880;2022-09-17T13:45:27;98908.97;;;29.00;52.14
56270;BME280;42176;43.240;27.880;2022-09-17T13:48:22;98903.59;;;27.49;70.88
56270;BME280;42176;43.240;27.880;2022-09-17T13:50:49;98977.78;;;26.67;73.44
56270;BME280;42176;43.240;27.880;2022-09-17T13:58:10;98954.19;;;24.65;83.26
56270;BME280;42176;43.240;27.880;2022-09-17T14:13:50;98944.59;;;25.25;75.60
56270;BME280;42176;43.240;27.880;2022-09-17T14:16:43;98951.88;;;25.43;70.93
56270;BME280;42176;43.240;27.880;2022-09-17T14:19:47;99032.25;;;25.26;72.53
56270;BME280;42176;43.240;27.880;2022-09-17T14:22:24;98976.31;;;24.88;74.37
56270;BME280;42176;43.240;27.880;2022-09-17T14:24:52;98957.38;;;24.60;72.43
56270;BME280;42176;43.240;27.880;2022-09-17T14:27:55;98922.91;;;24.35;72.33
56270;BME280;42176;43.240;27.880;2022-09-17T14:30:32;98898.72;;;24.05;72.40
56270;BME280;42176;43.240;27.880;2022-09-17T14:33:22;98889.69;;;23.77;73.99
56270;BME280;42176;43.240;27.880;2022-09-17T14:35:55;98830.28;;;23.57;73.73
56270;BME280;42176;43.240;27.880;2022-09-17T14:38:32;98794.47;;;23.45;73.02
56270;BME280;42176;43.240;27.880;2022-09-17T14:41:00;98790.13;;;23.24;75.04
56270;BME280;42176;43.240;27.880;2022-09-17T14:46:32;98698.19;;;22.96;74.06
56270;BME280;42176;43.240;27.880;2022-09-17T14:51:54;98692.06;;;22.57;77.29
56270;BME280;42176;43.240;27.880;2022-09-17T14:54:27;98701.47;;;22.43;76.72
56270;BME280;42176;43.240;27.880;2022-09-17T14:57:16;98720.50;;;22.31;77.58
56270;BME280;42176;43.240;27.880;2022-09-17T15:04:48;98746.06;;;21.88;79.78
56270;BME280;42176;43.240;27.880;2022-09-17T15:07:19;98794.78;;;21.96;80.23
56270;BME280;42176;43.240;27.880;2022-09-17T15:09:45;98818.78;;;21.99;81.77
56270;BME280;42176;43.240;27.880;2022-09-17T15:12:16;98819.94;;;22.07;84.66
56270;BME280;42176;43.240;27.880;2022-09-17T15:14:47;98814.28;;;22.10;84.02
56270;BME280;42176;43.240;27.880;2022-09-17T15:17:15;98806.31;;;22.18;83.67
56270;BME280;42176;43.240;27.880;2022-09-17T15:19:45;98829.06;;;22.25;81.93
56270;BME280;42176;43.240;27.880;2022-09-17T15:22:33;98819.66;;;22.29;82.74
56270;BME280;42176;43.240;27.880;2022-09-17T15:27:37;98814.84;;;22.62;80.22
56270;BME280;42176;43.240;27.880;2022-09-17T15:30:23;98812.03;;;22.64;78.28
56270;BME280;42176;43.240;27.880;2022-09-17T15:32:57;98811.72;;;22.67;78.38
56270;BME280;42176;43.240;27.880;2022-09-17T15:35:28;98810.88;;;22.66;79.81
56270;BME280;42176;43.240;27.880;2022-09-17T15:37:58;98810.59;;;22.70;79.53
56270;BME280;42176;43.240;27.880;2022-09-17T15:40:32;98807.03;;;22.79;79.07
56270;BME280;42176;43.240;27.880;2022-09-17T15:43:17;98791.25;;;22.74;79.30
56270;BME280;42176;43.240;27.880;2022-09-17T15:45:46;98789.97;;;22.78;78.52
56270;BME280;42176;43.240;27.880;2022-09-17T15:48:33;98796.34;;;22.87;80.64
56270;BME280;42176;43.240;27.880;2022-09-17T15:51:00;98783.41;;;22.81;79.98
56270;BME280;42176;43.240;27.880;2022-09-17T15:53:31;98786.41;;;22.78;78.26
56270;BME280;42176;43.240;27.880;2022-09-17T15:56:17;98795.78;;;22.74;79.47
56270;BME280;42176;43.240;27.880;2022-09-17T16:08:56;98773.59;;;22.80;84.10
56270;BME280;42176;43.240;27.880;2022-09-17T16:11:30;98775.03;;;22.74;84.16
56270;BME280;42176;43.240;27.880;2022-09-17T16:14:02;98776.78;;;22.65;84.70
56270;BME280;42176;43.240;27.880;2022-09-17T16:16:32;98771.66;;;22.62;84.43
56270;BME280;42176;43.240;27.880;2022-09-17T16:18:59;98773.63;;;22.60;83.90
56270;BME280;42176;43.240;27.880;2022-09-17T16:21:24;98773.94;;;22.57;85.79
56270;BME280;42176;43.240;27.880;2022-09-17T16:23:50;98763.28;;;22.56;86.46
56270;BME280;42176;43.240;27.880;2022-09-17T16:26:22;98770.53;;;22.55;85.54
56270;BME280;42176;43.240;27.880;2022-09-17T16:28:51;98758.75;;;22.56;85.86
56270;BME280;42176;43.240;27.880;2022-09-17T16:31:18;98758.88;;;22.45;85.54
56270;BME280;42176;43.240;27.880;2022-09-17T16:33:48;98764.28;;;22.45;85.45
56270;BME280;42176;43.240;27.880;2022-09-17T16:36:17;98777.78;;;22.45;85.54
56270;BME280;42176;43.240;27.880;2022-09-17T16:38:43;98776.22;;;22.42;86.59